createdAt,value
2022-08-17T00:02:05.005Z,100704.00
2022-08-17T00:04:51.066Z,100706.00
2022-08-17T00:07:17.694Z,100700.00
2022-08-17T00:09:44.207Z,100699.00
2022-08-17T00:12:42.827Z,100704.00
2022-08-17T00:14:57.458Z,100698.00
2022-08-17T00:17:24.186Z,100698.00
2022-08-17T00:19:50.750Z,100694.00
2022-08-17T00:22:33.564Z,100695.00
2022-08-17T00:25:05.325Z,100705.00
2022-08-17T00:27:32.104Z,100696.00
2022-08-17T00:29:58.667Z,100699.00
2022-08-17T00:33:12.227Z,100704.00
2022-08-17T00:35:16.107Z,100700.00
2022-08-17T00:37:42.608Z,100703.00
2022-08-17T00:40:12.131Z,100699.00
2022-08-17T00:42:39.916Z,100701.00
2022-08-17T00:45:09.577Z,100693.00
2022-08-17T00:47:36.406Z,100700.00
2022-08-17T00:50:05.780Z,100700.00
2022-08-17T00:52:37.736Z,100706.00
2022-08-17T00:55:06.060Z,100707.00
2022-08-17T00:57:40.564Z,100704.00
2022-08-17T01:00:14.718Z,100702.00
2022-08-17T01:02:44.789Z,100703.00
2022-08-17T01:05:25.661Z,100699.00
2022-08-17T01:07:52.939Z,100704.00
2022-08-17T01:10:59.305Z,100701.00
2022-08-17T01:13:17.009Z,100710.00
2022-08-17T01:15:50.380Z,100715.00
2022-08-17T01:18:17.071Z,100715.00
2022-08-17T01:20:51.922Z,100708.00
2022-08-17T01:23:21.342Z,100708.00
2022-08-17T01:25:51.342Z,100709.00
2022-08-17T01:28:33.384Z,100709.00
2022-08-17T01:31:08.150Z,100710.00
2022-08-17T01:33:35.147Z,100711.00
2022-08-17T01:36:02.370Z,100711.00
2022-08-17T01:38:31.953Z,100712.00
2022-08-17T01:41:02.687Z,100719.00
2022-08-17T01:43:34.878Z,100714.00
2022-08-17T01:46:03.739Z,100719.00
2022-08-17T01:48:37.511Z,100725.00
2022-08-17T01:51:07.508Z,100725.00
2022-08-17T01:53:42.393Z,100730.00
2022-08-17T01:56:12.798Z,100723.00
2022-08-17T01:58:41.329Z,100732.00
2022-08-17T02:01:09.560Z,100720.00
2022-08-17T02:03:37.709Z,100717.00
2022-08-17T02:06:06.240Z,100717.00
2022-08-17T02:09:01.752Z,100718.00
2022-08-17T02:11:31.516Z,100722.00
2022-08-17T02:14:03.734Z,100722.00
2022-08-17T02:16:37.755Z,100720.00
2022-08-17T02:19:11.738Z,100719.00
2022-08-17T02:21:41.088Z,100716.00
2022-08-17T02:24:11.711Z,100720.00
2022-08-17T02:26:38.397Z,100714.00
2022-08-17T02:29:05.122Z,100713.00
2022-08-17T02:31:31.703Z,100718.00
2022-08-17T02:34:04.559Z,100710.00
2022-08-17T02:36:34.057Z,100710.00
2022-08-17T02:39:11.311Z,100718.00
2022-08-17T02:41:38.678Z,100712.00
2022-08-17T02:44:06.000Z,100709.00
2022-08-17T02:46:33.228Z,100715.00
2022-08-17T02:48:59.842Z,100706.00
2022-08-17T02:51:27.642Z,100714.00
2022-08-17T02:54:35.731Z,100711.00
2022-08-17T02:56:41.484Z,100714.00
2022-08-17T02:59:07.967Z,100702.00
2022-08-17T03:01:34.746Z,100702.00
2022-08-17T03:04:01.288Z,100706.00
2022-08-17T03:06:29.219Z,100703.00
2022-08-17T03:08:55.995Z,100702.00
2022-08-17T03:11:22.525Z,100712.00
2022-08-17T03:13:50.109Z,100716.00
2022-08-17T03:16:16.621Z,100708.00
2022-08-17T03:18:43.475Z,100717.00
2022-08-17T03:21:10.020Z,100713.00
2022-08-17T03:23:41.197Z,100704.00
2022-08-17T03:26:12.383Z,100706.00
2022-08-17T03:28:42.478Z,100701.00
2022-08-17T03:31:09.022Z,100704.00
2022-08-17T03:33:35.556Z,100702.00
2022-08-17T03:36:02.116Z,100699.00
2022-08-17T03:38:28.633Z,100700.00
2022-08-17T03:41:08.301Z,100705.00
2022-08-17T03:43:37.737Z,100703.00
2022-08-17T03:46:27.570Z,100696.00
2022-08-17T03:49:17.713Z,100701.00
2022-08-17T03:52:02.654Z,100701.00
2022-08-17T03:54:47.585Z,100701.00
2022-08-17T03:57:14.436Z,100704.00
2022-08-17T03:59:41.062Z,100703.00
2022-08-17T04:02:15.910Z,100703.00
2022-08-17T04:04:42.721Z,100707.00
2022-08-17T04:07:09.824Z,100702.00
2022-08-17T04:09:37.672Z,100708.00
2022-08-17T04:12:05.416Z,100702.00
2022-08-17T04:14:51.940Z,100703.00
2022-08-17T04:17:26.475Z,100703.00
2022-08-17T04:19:54.168Z,100699.00
2022-08-17T04:22:33.155Z,100706.00
2022-08-17T04:25:16.638Z,100702.00
2022-08-17T04:27:43.274Z,100712.00
2022-08-17T04:30:10.428Z,100707.00
2022-08-17T04:33:06.043Z,100710.00
2022-08-17T04:35:41.241Z,100713.00
2022-08-17T04:38:09.850Z,100715.00
2022-08-17T04:40:55.451Z,100718.00
2022-08-17T04:43:24.891Z,100720.00
2022-08-17T04:45:57.560Z,100717.00
2022-08-17T04:48:29.980Z,100723.00
2022-08-17T04:51:14.239Z,100726.00
2022-08-17T04:53:41.755Z,100732.00
2022-08-17T04:56:16.036Z,100725.00
2022-08-17T04:58:45.688Z,100728.00
2022-08-17T05:01:12.811Z,100730.00
2022-08-17T05:03:39.340Z,100730.00
2022-08-17T05:06:06.041Z,100734.00
2022-08-17T05:08:32.596Z,100738.00
2022-08-17T05:11:00.423Z,100742.00
2022-08-17T05:13:29.633Z,100747.00
2022-08-17T05:15:58.980Z,100751.00
2022-08-17T05:18:25.949Z,100752.00
2022-08-17T05:20:53.295Z,100739.00
2022-08-17T05:23:22.235Z,100748.00
2022-08-17T05:25:51.413Z,100761.00
2022-08-17T05:28:24.222Z,100758.00
2022-08-17T05:30:56.080Z,100754.00
2022-08-17T05:33:26.328Z,100752.00
2022-08-17T05:35:55.543Z,100752.00
2022-08-17T05:38:24.420Z,100754.00
2022-08-17T05:40:51.448Z,100755.00
2022-08-17T05:43:29.753Z,100759.00
2022-08-17T05:46:13.579Z,100749.00
2022-08-17T05:48:49.577Z,100755.00
2022-08-17T05:51:53.734Z,100755.00
2022-08-17T05:54:47.351Z,100750.00
2022-08-17T05:57:31.025Z,100749.00
2022-08-17T06:00:03.555Z,100759.00
2022-08-17T06:02:58.036Z,100761.00
2022-08-17T06:05:49.976Z,100754.00
2022-08-17T06:08:26.102Z,100753.00
2022-08-17T06:11:16.047Z,100761.00
2022-08-17T06:14:21.311Z,100752.00
2022-08-17T06:16:54.682Z,100750.00
2022-08-17T06:19:54.786Z,100747.00
2022-08-17T06:22:25.847Z,100746.00
2022-08-17T06:25:05.206Z,100751.00
2022-08-17T06:27:45.010Z,100748.00
2022-08-17T06:30:14.461Z,100741.00
2022-08-17T06:32:44.643Z,100742.00
2022-08-17T06:35:15.492Z,100741.00
2022-08-17T06:37:59.384Z,100749.00
2022-08-17T06:40:57.636Z,100752.00
2022-08-17T06:44:49.866Z,100757.00
2022-08-17T06:47:28.671Z,100767.00
2022-08-17T06:50:09.072Z,100777.00
2022-08-17T06:52:47.568Z,100775.00
2022-08-17T06:55:23.408Z,100788.00
2022-08-17T06:57:54.090Z,100786.00
2022-08-17T07:00:24.493Z,100795.00
2022-08-17T07:02:59.498Z,100790.00
2022-08-17T07:05:32.069Z,100794.00
2022-08-17T07:08:18.498Z,100801.00
2022-08-17T07:10:50.880Z,100797.00
2022-08-17T07:13:44.591Z,100803.00
2022-08-17T07:16:24.061Z,100797.00
2022-08-17T07:18:54.755Z,100793.00
2022-08-17T07:21:46.078Z,100802.00
2022-08-17T07:24:37.228Z,100797.00
2022-08-17T07:27:21.019Z,100795.00
2022-08-17T07:29:49.567Z,100806.00
2022-08-17T07:32:20.081Z,100802.00
2022-08-17T07:35:15.296Z,100804.00
2022-08-17T07:37:55.744Z,100805.00
2022-08-17T07:40:26.921Z,100799.00
2022-08-17T07:43:02.491Z,100807.00
2022-08-17T07:45:50.711Z,100807.00
2022-08-17T07:48:21.155Z,100813.00
2022-08-17T07:50:49.640Z,100807.00
2022-08-17T07:53:25.755Z,100820.00
2022-08-17T07:55:53.993Z,100812.00
2022-08-17T07:58:23.741Z,100816.00
2022-08-17T08:01:11.877Z,100815.00
2022-08-17T08:03:43.108Z,100812.00
2022-08-17T08:06:22.697Z,100812.00
2022-08-17T08:08:55.084Z,100820.00
2022-08-17T08:11:35.243Z,100820.00
2022-08-17T08:14:28.384Z,100823.00
2022-08-17T08:17:09.297Z,100822.00
2022-08-17T08:19:36.029Z,100822.00
2022-08-17T08:22:07.782Z,100828.00
2022-08-17T08:24:53.041Z,100823.00
2022-08-17T08:27:40.573Z,100826.00
2022-08-17T08:30:14.778Z,100831.00
2022-08-17T08:32:54.153Z,100828.00
2022-08-17T08:35:31.692Z,100827.00
2022-08-17T08:38:29.367Z,100829.00
2022-08-17T08:41:02.371Z,100838.00
2022-08-17T08:43:56.773Z,100830.00
2022-08-17T08:46:45.093Z,100822.00
2022-08-17T08:50:02.200Z,100829.00
2022-08-17T08:52:42.440Z,100816.00
2022-08-17T08:55:34.556Z,100822.00
2022-08-17T08:58:08.456Z,100822.00
2022-08-17T09:00:58.304Z,100825.00
2022-08-17T09:04:12.056Z,100819.00
2022-08-17T09:07:23.116Z,100821.00
2022-08-17T09:10:16.072Z,100827.00
2022-08-17T09:13:12.651Z,100830.00
2022-08-17T09:15:47.487Z,100828.00
2022-08-17T09:19:00.640Z,100819.00
2022-08-17T09:21:23.666Z,100824.00
2022-08-17T09:24:12.605Z,100827.00
2022-08-17T09:27:01.988Z,100814.00
2022-08-17T09:29:34.862Z,100815.00
2022-08-17T09:32:09.577Z,100816.00
2022-08-17T09:34:54.938Z,100827.00
2022-08-17T09:37:43.122Z,100820.00
2022-08-17T09:40:17.379Z,100809.00
2022-08-17T09:42:55.609Z,100808.00
2022-08-17T09:45:32.600Z,100804.00
2022-08-17T09:48:02.591Z,100825.00
2022-08-17T09:50:55.564Z,100817.00
2022-08-17T09:53:25.267Z,100823.00
2022-08-17T09:56:17.676Z,100813.00
2022-08-17T09:59:00.430Z,100824.00
2022-08-17T10:02:04.835Z,100831.00
2022-08-17T10:04:44.590Z,100811.00
2022-08-17T10:07:21.104Z,100813.00
2022-08-17T10:10:14.428Z,100823.00
2022-08-17T10:13:12.054Z,100821.00
2022-08-17T10:15:50.659Z,100805.00
2022-08-17T10:18:37.768Z,100809.00
2022-08-17T10:21:30.122Z,100802.00
2022-08-17T10:24:25.883Z,100809.00
2022-08-17T10:26:57.224Z,100807.00
2022-08-17T10:29:49.254Z,100799.00
2022-08-17T10:32:26.401Z,100805.00
2022-08-17T10:35:26.081Z,100806.00
2022-08-17T10:38:12.097Z,100816.00
2022-08-17T10:40:57.609Z,100798.00
2022-08-17T10:43:37.309Z,100800.00
2022-08-17T10:46:30.889Z,100794.00
2022-08-17T10:49:35.018Z,100800.00
2022-08-17T10:52:36.669Z,100800.00
2022-08-17T10:55:18.456Z,100811.00
2022-08-17T10:57:48.059Z,100807.00
2022-08-17T11:00:40.519Z,100812.00
2022-08-17T11:03:23.743Z,100799.00
2022-08-17T11:06:17.122Z,100796.00
2022-08-17T11:09:07.362Z,100794.00
2022-08-17T11:11:53.609Z,100798.00
2022-08-17T11:15:00.443Z,100787.00
2022-08-17T11:17:49.714Z,100797.00
2022-08-17T11:20:57.927Z,100787.00
2022-08-17T11:23:42.997Z,100785.00
2022-08-17T11:26:26.253Z,100779.00
2022-08-17T11:28:59.581Z,100771.00
2022-08-17T11:31:38.280Z,100766.00
2022-08-17T11:34:27.203Z,100760.00
2022-08-17T11:37:31.136Z,100767.00
2022-08-17T11:40:21.812Z,100773.00
2022-08-17T11:43:13.644Z,100779.00
2022-08-17T11:46:02.952Z,100772.00
2022-08-17T11:49:00.878Z,100794.00
2022-08-17T11:52:01.481Z,100776.00
2022-08-17T11:54:33.672Z,100783.00
2022-08-17T11:57:26.507Z,100777.00
2022-08-17T12:00:30.215Z,100749.00
2022-08-17T12:03:42.494Z,100753.00
2022-08-17T12:06:31.713Z,100776.00
2022-08-17T12:09:13.546Z,100759.00
2022-08-17T12:11:56.325Z,100743.00
2022-08-17T12:15:05.661Z,100777.00
2022-08-17T12:17:40.938Z,100749.00
2022-08-17T12:20:23.080Z,100782.00
2022-08-17T12:22:53.820Z,100784.00
2022-08-17T12:25:33.224Z,100782.00
2022-08-17T12:28:06.647Z,100784.00
2022-08-17T12:30:35.538Z,100787.00
2022-08-17T12:33:02.735Z,100784.00
2022-08-17T12:35:34.538Z,100790.00
2022-08-17T12:38:03.316Z,100780.00
2022-08-17T12:40:32.266Z,100785.00
2022-08-17T12:43:18.340Z,100783.00
2022-08-17T12:45:46.483Z,100777.00
2022-08-17T12:48:21.926Z,100770.00
2022-08-17T12:50:50.520Z,100772.00
2022-08-17T12:53:23.769Z,100774.00
2022-08-17T12:55:51.310Z,100765.00
2022-08-17T12:58:24.925Z,100757.00
2022-08-17T13:00:56.594Z,100741.00
2022-08-17T13:03:35.713Z,100731.00
2022-08-17T13:06:13.176Z,100718.00
2022-08-17T13:08:43.289Z,100717.00
2022-08-17T13:11:20.146Z,100738.00
2022-08-17T13:13:54.392Z,100718.00
2022-08-17T13:16:24.109Z,100738.00
2022-08-17T13:18:53.832Z,100722.00
2022-08-17T13:21:22.231Z,100730.00
2022-08-17T13:23:55.998Z,100736.00
2022-08-17T13:26:29.389Z,100741.00
2022-08-17T13:28:59.996Z,100743.00
2022-08-17T13:31:28.513Z,100743.00
2022-08-17T13:34:19.034Z,100739.00
2022-08-17T13:36:46.964Z,100735.00
2022-08-17T13:39:24.114Z,100728.00
2022-08-17T13:41:54.038Z,100729.00
2022-08-17T13:44:40.705Z,100735.00
2022-08-17T13:47:19.150Z,100727.00
2022-08-17T13:49:49.217Z,100728.00
2022-08-17T13:52:43.039Z,100714.00
2022-08-17T13:55:21.162Z,100727.00
2022-08-17T13:58:06.861Z,100726.00
2022-08-17T14:00:36.450Z,100722.00
2022-08-17T14:03:04.944Z,100730.00
2022-08-17T14:05:32.024Z,100730.00
2022-08-17T14:08:02.111Z,100733.00
2022-08-17T14:10:37.199Z,100738.00
2022-08-17T14:13:05.442Z,100738.00
2022-08-17T14:15:54.912Z,100731.00
2022-08-17T14:18:55.287Z,100722.00
2022-08-17T14:21:08.384Z,100734.00
2022-08-17T14:23:36.644Z,100733.00
2022-08-17T14:26:03.136Z,100739.00
2022-08-17T14:28:29.844Z,100733.00
2022-08-17T14:30:56.323Z,100731.00
2022-08-17T14:33:24.880Z,100731.00
2022-08-17T14:35:54.833Z,100724.00
2022-08-17T14:38:21.440Z,100727.00
2022-08-17T14:40:48.812Z,100717.00
2022-08-17T14:43:16.017Z,100723.00
2022-08-17T14:45:43.686Z,100715.00
2022-08-17T14:48:10.571Z,100720.00
2022-08-17T14:50:41.228Z,100725.00
2022-08-17T14:53:10.270Z,100719.00
2022-08-17T14:55:39.744Z,100714.00
2022-08-17T14:58:06.925Z,100722.00
2022-08-17T15:00:33.678Z,100733.00
2022-08-17T15:03:01.620Z,100726.00
2022-08-17T15:05:34.004Z,100721.00
2022-08-17T15:08:01.922Z,100722.00
2022-08-17T15:10:29.778Z,100721.00
2022-08-17T15:12:57.153Z,100725.00
2022-08-17T15:15:24.393Z,100708.00
2022-08-17T15:17:51.585Z,100720.00
2022-08-17T15:20:21.181Z,100716.00
2022-08-17T15:22:55.304Z,100721.00
2022-08-17T15:25:22.868Z,100720.00
2022-08-17T15:27:49.700Z,100715.00
2022-08-17T15:30:16.950Z,100713.00
2022-08-17T15:32:51.470Z,100717.00
2022-08-17T15:35:27.490Z,100720.00
2022-08-17T15:37:57.449Z,100716.00
2022-08-17T15:40:25.080Z,100720.00
2022-08-17T15:42:51.958Z,100713.00
2022-08-17T15:45:22.597Z,100710.00
2022-08-17T15:47:49.153Z,100721.00
2022-08-17T15:50:16.079Z,100711.00
2022-08-17T15:52:47.233Z,100703.00
2022-08-17T15:55:15.127Z,100697.00
2022-08-17T15:57:41.959Z,100692.00
2022-08-17T16:00:10.107Z,100685.00
2022-08-17T16:03:14.774Z,100674.00
2022-08-17T16:05:27.203Z,100685.00
2022-08-17T16:07:58.442Z,100695.00
2022-08-17T16:10:34.553Z,100709.00
2022-08-17T16:13:03.925Z,100691.00
2022-08-17T16:15:33.437Z,100695.00
2022-08-17T16:17:59.945Z,100695.00
2022-08-17T16:20:26.863Z,100692.00
2022-08-17T16:22:54.169Z,100693.00
2022-08-17T16:25:51.885Z,100693.00
2022-08-17T16:28:12.455Z,100698.00
2022-08-17T16:30:39.151Z,100686.00
2022-08-17T16:33:05.749Z,100699.00
2022-08-17T16:35:32.284Z,100699.00
2022-08-17T16:37:58.944Z,100693.00
2022-08-17T16:40:27.599Z,100695.00
2022-08-17T16:42:56.123Z,100693.00
2022-08-17T16:45:28.480Z,100692.00
2022-08-17T16:47:55.291Z,100700.00
2022-08-17T16:50:23.492Z,100702.00
2022-08-17T16:52:50.935Z,100695.00
2022-08-17T16:55:19.893Z,100694.00
2022-08-17T16:57:50.304Z,100696.00
2022-08-17T17:00:19.241Z,100693.00
2022-08-17T17:02:48.147Z,100685.00
2022-08-17T17:05:57.619Z,100679.00
2022-08-17T17:08:30.238Z,100682.00
2022-08-17T17:10:59.626Z,100694.00
2022-08-17T17:13:35.244Z,100683.00
2022-08-17T17:16:22.118Z,100686.00
2022-08-17T17:19:15.003Z,100678.00
2022-08-17T17:22:11.083Z,100679.00
2022-08-17T17:25:06.966Z,100678.00
2022-08-17T17:27:48.957Z,100685.00
2022-08-17T17:30:20.790Z,100692.00
2022-08-17T17:32:55.849Z,100688.00
2022-08-17T17:35:28.328Z,100682.00
2022-08-17T17:37:57.380Z,100687.00
2022-08-17T17:40:31.862Z,100689.00
2022-08-17T17:43:20.539Z,100690.00
2022-08-17T17:45:55.501Z,100679.00
2022-08-17T17:48:22.151Z,100682.00
2022-08-17T17:50:57.379Z,100683.00
2022-08-17T17:53:45.116Z,100684.00
2022-08-17T17:56:43.963Z,100682.00
2022-08-17T17:59:21.562Z,100682.00
2022-08-17T18:02:04.361Z,100688.00
2022-08-17T18:04:32.969Z,100687.00
2022-08-17T18:07:27.446Z,100690.00
2022-08-17T18:10:19.657Z,100695.00
2022-08-17T18:13:28.296Z,100692.00
2022-08-17T18:15:56.450Z,100693.00
2022-08-17T18:18:44.768Z,100701.00
2022-08-17T18:21:19.232Z,100703.00
2022-08-17T18:23:48.012Z,100698.00
2022-08-17T18:26:34.520Z,100698.00
2022-08-17T18:29:11.380Z,100704.00
2022-08-17T18:31:38.139Z,100701.00
2022-08-17T18:37:16.126Z,100705.00
2022-08-17T18:39:46.127Z,100710.00
2022-08-17T18:42:26.087Z,100713.00
2022-08-17T18:44:55.355Z,100713.00
2022-08-17T18:47:28.164Z,100701.00
2022-08-17T18:50:18.994Z,100710.00
2022-08-17T18:52:48.349Z,100708.00
2022-08-17T18:55:22.124Z,100712.00
2022-08-17T18:57:50.310Z,100714.00
2022-08-17T19:00:38.403Z,100713.00
2022-08-17T19:03:18.027Z,100709.00
2022-08-17T19:05:52.916Z,100711.00
2022-08-17T19:08:28.444Z,100712.00
2022-08-17T19:11:08.375Z,100711.00
2022-08-17T19:13:47.035Z,100715.00
2022-08-17T19:16:20.102Z,100706.00
2022-08-17T19:18:53.509Z,100713.00
2022-08-17T19:21:28.002Z,100703.00
2022-08-17T19:24:05.622Z,100706.00
2022-08-17T19:26:50.614Z,100708.00
2022-08-17T19:29:32.242Z,100706.00
2022-08-17T19:32:00.819Z,100710.00
2022-08-17T19:34:33.975Z,100705.00
2022-08-17T19:37:21.888Z,100704.00
2022-08-17T19:40:00.090Z,100708.00
2022-08-17T19:42:47.335Z,100709.00
2022-08-17T19:45:59.276Z,100719.00
2022-08-17T19:48:47.401Z,100716.00
2022-08-17T19:51:21.451Z,100708.00
2022-08-17T19:54:05.910Z,100703.00
2022-08-17T19:57:05.453Z,100703.00
2022-08-17T19:59:48.981Z,100704.00
2022-08-17T20:02:33.903Z,100695.00
2022-08-17T20:05:06.300Z,100695.00
2022-08-17T20:07:55.569Z,100702.00
2022-08-17T20:10:54.727Z,100703.00
2022-08-17T20:13:44.125Z,100711.00
2022-08-17T20:16:11.375Z,100696.00
2022-08-17T20:18:49.417Z,100697.00
2022-08-17T20:21:24.710Z,100699.00
2022-08-17T20:24:06.381Z,100695.00
2022-08-17T20:26:59.615Z,100697.00
2022-08-17T20:30:02.693Z,100703.00
2022-08-17T20:32:35.697Z,100703.00
2022-08-17T20:35:17.158Z,100701.00
2022-08-17T20:37:56.732Z,100701.00
2022-08-17T20:40:55.356Z,100705.00
2022-08-17T20:43:35.418Z,100706.00
2022-08-17T20:46:06.635Z,100702.00
2022-08-17T20:48:41.644Z,100702.00
2022-08-17T20:51:27.150Z,100708.00
2022-08-17T20:53:53.600Z,100708.00
2022-08-17T20:56:45.065Z,100700.00
2022-08-17T20:59:20.805Z,100703.00
2022-08-17T21:02:02.787Z,100699.00
2022-08-17T21:04:50.679Z,100707.00
2022-08-17T21:07:40.000Z,100708.00
2022-08-17T21:10:25.563Z,100698.00
2022-08-17T21:13:37.981Z,100701.00
2022-08-17T21:16:29.416Z,100702.00
2022-08-17T21:19:04.064Z,100705.00
2022-08-17T21:22:08.311Z,100706.00
2022-08-17T21:24:55.912Z,100699.00
2022-08-17T21:27:25.368Z,100712.00
2022-08-17T21:30:13.910Z,100711.00
2022-08-17T21:33:25.059Z,100704.00
2022-08-17T21:36:10.338Z,100708.00
2022-08-17T21:38:56.988Z,100703.00
2022-08-17T21:41:29.572Z,100706.00
2022-08-17T21:44:05.245Z,100705.00
2022-08-17T21:46:37.571Z,100707.00
2022-08-17T21:49:13.883Z,100699.00
2022-08-17T21:51:53.718Z,100710.00
2022-08-17T21:54:32.481Z,100706.00
2022-08-17T21:57:01.908Z,100710.00
2022-08-17T21:59:31.728Z,100708.00
2022-08-17T22:02:04.549Z,100709.00
2022-08-17T22:04:34.631Z,100711.00
2022-08-17T22:07:04.970Z,100708.00
2022-08-17T22:09:44.847Z,100712.00
2022-08-17T22:12:20.319Z,100718.00
2022-08-17T22:14:56.918Z,100711.00
2022-08-17T22:17:35.861Z,100720.00
2022-08-17T22:20:09.442Z,100717.00
2022-08-17T22:23:20.022Z,100721.00
2022-08-17T22:26:09.633Z,100722.00
2022-08-17T22:28:46.249Z,100714.00
2022-08-17T22:31:18.728Z,100713.00
2022-08-17T22:33:49.853Z,100719.00
2022-08-17T22:36:26.877Z,100725.00
2022-08-17T22:38:58.750Z,100720.00
2022-08-17T22:41:37.065Z,100714.00
2022-08-17T22:44:23.192Z,100720.00
2022-08-17T22:47:16.299Z,100722.00
2022-08-17T22:49:54.657Z,100720.00
2022-08-17T22:52:59.621Z,100722.00
2022-08-17T22:55:46.284Z,100722.00
2022-08-17T22:58:35.583Z,100725.00
2022-08-17T23:01:32.441Z,100724.00
2022-08-17T23:04:01.876Z,100721.00
2022-08-17T23:06:29.044Z,100727.00
2022-08-17T23:08:57.708Z,100722.00
2022-08-17T23:11:42.785Z,100718.00
2022-08-17T23:14:16.075Z,100725.00
2022-08-17T23:16:42.939Z,100723.00
2022-08-17T23:19:15.924Z,100713.00
2022-08-17T23:21:45.104Z,100720.00
2022-08-17T23:24:26.021Z,100715.00
2022-08-17T23:26:53.387Z,100713.00
2022-08-17T23:29:21.310Z,100717.00
2022-08-17T23:31:49.276Z,100704.00
2022-08-17T23:34:18.681Z,100704.00
2022-08-17T23:36:52.572Z,100706.00
2022-08-17T23:39:27.641Z,100696.00
2022-08-17T23:41:56.212Z,100711.00
2022-08-17T23:44:23.588Z,100706.00
2022-08-17T23:46:53.793Z,100702.00
2022-08-17T23:49:20.350Z,100698.00
2022-08-17T23:51:48.134Z,100692.00
2022-08-17T23:54:21.531Z,100689.00
2022-08-17T23:56:49.123Z,100692.00
2022-08-17T23:59:17.848Z,100685.00
